Time;durP1;ratioP1;P1;durP2;ratioP2;P2;SDS_P1;SDS_P2;PMS_P1;PMS_P2;Temp;Humidity;BMP_temperature;BMP_pressure;BME280_temperature;BME280_humidity;BME280_pressure;Samples;Min_cycle;Max_cycle;Signal;HPM_P1;HPM_P2
2022/01/28 00:02:38;;;;;;;14.43;1.87;;;7.40;99.90;;;;;;5070364;28;39514;-78
2022/01/28 00:05:02;;;;;;;13.37;2.10;;;7.40;99.90;;;;;;5071697;28;37832;-78
2022/01/28 00:07:28;;;;;;;14.40;2.40;;;7.40;99.90;;;;;;5050057;28;47493;-78
2022/01/28 00:09:54;;;;;;;10.90;2.10;;;7.30;99.90;;;;;;5056515;28;37726;-78
2022/01/28 00:12:20;;;;;;;15.50;2.17;;;7.30;99.90;;;;;;5072251;27;38131;-77
2022/01/28 00:36:26;;;;;;;13.30;2.43;;;7.60;99.90;;;;;;5079048;28;39414;-78
2022/01/28 00:39:11;;;;;;;25.25;3.47;;;7.60;99.90;;;;;;5078282;27;37629;-78
2022/01/28 00:41:37;;;;;;;19.70;2.50;;;7.60;99.90;;;;;;5073146;27;38664;-78
2022/01/28 00:44:04;;;;;;;18.10;2.33;;;7.70;99.90;;;;;;5078246;27;38299;-77
2022/01/28 00:46:30;;;;;;;22.77;2.80;;;7.70;99.90;;;;;;5072170;28;38119;-78
2022/01/28 00:48:56;;;;;;;23.13;2.83;;;7.60;99.90;;;;;;5062252;28;36629;-78
2022/01/28 00:51:23;;;;;;;18.07;2.80;;;7.50;99.90;;;;;;5063227;28;37659;-78
2022/01/28 00:53:49;;;;;;;21.10;3.47;;;7.70;99.90;;;;;;5063909;28;39107;-78
2022/01/28 00:56:15;;;;;;;21.67;2.53;;;7.70;99.90;;;;;;5055870;28;38476;-78
2022/01/28 00:58:41;;;;;;;19.73;2.50;;;7.70;99.90;;;;;;5077775;28;37979;-78
2022/01/28 01:01:07;;;;;;;29.23;3.27;;;7.90;99.90;;;;;;5059601;27;38106;-78
2022/01/28 01:03:33;;;;;;;25.83;2.97;;;7.90;99.90;;;;;;5060151;28;38381;-78
2022/01/28 01:05:59;;;;;;;18.73;3.03;;;7.90;99.90;;;;;;5062579;28;36143;-78
2022/01/28 01:08:26;;;;;;;25.57;3.80;;;7.80;99.90;;;;;;5057124;28;36062;-78
2022/01/28 01:10:54;;;;;;;20.93;3.47;;;7.80;99.90;;;;;;5073420;28;38172;-78
2022/01/28 01:13:20;;;;;;;21.43;2.93;;;7.80;99.90;;;;;;5078875;28;38491;-78
2022/01/28 01:15:51;;;;;;;17.07;2.40;;;7.60;99.90;;;;;;5078979;27;38214;-78
2022/01/28 01:18:46;;;;;;;22.03;2.13;;;7.70;99.90;;;;;;5060757;28;36555;-78
2022/01/28 01:21:11;;;;;;;16.07;3.17;;;7.70;99.90;;;;;;5081349;27;38678;-77
2022/01/28 01:23:40;;;;;;;15.13;2.50;;;7.80;99.90;;;;;;5075668;28;38476;-78
2022/01/28 01:26:10;;;;;;;17.00;3.03;;;7.80;99.90;;;;;;5057550;27;38608;-78
2022/01/28 01:28:38;;;;;;;19.40;3.00;;;7.80;99.90;;;;;;5081706;28;37644;-78
2022/01/28 01:31:08;;;;;;;19.27;2.93;;;7.80;99.90;;;;;;5079367;27;39777;-78
2022/01/28 01:33:41;;;;;;;18.67;2.80;;;7.80;99.90;;;;;;5058335;28;37795;-78
2022/01/28 01:36:07;;;;;;;24.23;3.17;;;7.80;99.90;;;;;;5054515;27;37070;-78
2022/01/28 01:38:36;;;;;;;19.23;2.73;;;7.80;99.90;;;;;;5059383;28;38625;-78
2022/01/28 01:41:06;;;;;;;17.07;2.67;;;7.80;99.90;;;;;;5068499;27;39868;-77
2022/01/28 01:43:46;;;;;;;23.60;2.80;;;7.80;99.90;;;;;;5072403;28;38803;-78
2022/01/28 01:54:13;;;;;;;13.27;2.30;;;7.90;99.90;;;;;;5076668;28;39731;-77
2022/01/28 01:56:40;;;;;;;21.97;3.67;;;7.80;99.90;;;;;;5078824;28;38080;-77
2022/01/28 01:59:08;;;;;;;18.97;2.77;;;7.80;99.90;;;;;;5056602;28;36662;-78
2022/01/28 02:01:35;;;;;;;14.60;2.97;;;7.80;99.90;;;;;;5061635;28;37817;-78
2022/01/28 02:04:01;;;;;;;16.23;2.33;;;7.90;99.90;;;;;;5075486;28;38525;-78
2022/01/28 02:06:27;;;;;;;21.20;3.23;;;8.10;99.90;;;;;;5059372;27;47525;-78
2022/01/28 02:08:53;;;;;;;22.87;2.60;;;8.00;99.90;;;;;;5079614;28;37249;-78
2022/01/28 02:11:19;;;;;;;21.93;2.87;;;8.00;99.90;;;;;;5059224;28;37697;-78
2022/01/28 02:13:50;;;;;;;27.67;3.40;;;7.90;99.90;;;;;;5072578;28;39488;-78
2022/01/28 02:16:17;;;;;;;23.73;3.00;;;7.80;99.90;;;;;;5055817;27;38385;-78
2022/01/28 02:18:43;;;;;;;18.00;3.37;;;7.80;99.90;;;;;;5051211;28;36198;-77
2022/01/28 02:21:12;;;;;;;24.17;4.23;;;7.80;99.90;;;;;;5054914;27;39092;-77
2022/01/28 02:23:39;;;;;;;19.53;2.87;;;7.90;99.90;;;;;;5081283;28;39126;-78
2022/01/28 02:26:06;;;;;;;24.80;4.70;;;8.00;99.90;;;;;;5057382;28;37244;-77
2022/01/28 02:28:37;;;;;;;19.60;2.97;;;8.00;99.90;;;;;;5078390;28;37390;-78
2022/01/28 02:31:05;;;;;;;21.43;3.57;;;8.00;99.90;;;;;;5057477;27;38798;-77
2022/01/28 02:33:31;;;;;;;19.73;3.40;;;7.80;99.90;;;;;;5070638;28;39077;-78
2022/01/28 02:36:07;;;;;;;20.40;3.53;;;7.70;99.90;;;;;;5075496;28;38410;-77
2022/01/28 02:38:34;;;;;;;26.40;3.40;;;7.60;99.90;;;;;;5071878;28;48750;-77
2022/01/28 02:41:02;;;;;;;31.03;3.40;;;7.50;99.90;;;;;;5058389;28;36404;-78
2022/01/28 02:43:36;;;;;;;23.60;3.20;;;7.40;99.90;;;;;;5079972;28;48194;-78
2022/01/28 02:46:07;;;;;;;23.27;3.50;;;7.40;99.90;;;;;;5077689;27;38010;-77
2022/01/28 02:48:35;;;;;;;21.87;4.27;;;7.40;99.90;;;;;;5056499;28;36096;-77
2022/01/28 02:51:08;;;;;;;20.53;3.60;;;7.40;99.90;;;;;;5071502;27;39574;-77
2022/01/28 02:56:57;;;;;;;24.87;3.60;;;7.30;99.90;;;;;;5073655;28;40553;-77
2022/01/28 02:58:53;;;;;;;20.17;3.13;;;7.40;99.90;;;;;;5064156;28;36522;-78
2022/01/28 03:01:19;;;;;;;24.87;4.00;;;7.30;99.90;;;;;;5069854;27;38983;-78
2022/01/28 03:03:47;;;;;;;20.73;2.87;;;7.20;99.90;;;;;;5055066;28;38320;-78
2022/01/28 03:06:15;;;;;;;16.07;2.70;;;7.20;99.90;;;;;;5059448;27;37192;-78
2022/01/28 03:08:46;;;;;;;17.63;2.47;;;7.20;99.90;;;;;;5060887;28;35919;-77
2022/01/28 03:15:01;;;;;;;24.83;3.63;;;7.30;99.90;;;;;;5074992;28;39252;-78
2022/01/28 03:17:09;;;;;;;16.97;2.63;;;7.30;99.90;;;;;;5059238;27;49034;-77
2022/01/28 03:22:31;;;;;;;17.77;3.87;;;7.40;99.90;;;;;;5017670;28;49046;-77
2022/01/28 03:24:59;;;;;;;20.00;3.00;;;7.20;99.90;;;;;;5062897;28;37473;-78
2022/01/28 03:27:42;;;;;;;17.03;2.53;;;7.20;99.90;;;;;;5078154;27;38724;-78
2022/01/28 03:30:09;;;;;;;13.97;2.20;;;7.20;99.90;;;;;;5074816;27;36106;-77
2022/01/28 03:32:35;;;;;;;20.17;2.83;;;7.30;99.90;;;;;;5055605;28;40370;-78
2022/01/28 03:35:02;;;;;;;20.83;2.63;;;7.20;99.90;;;;;;5063461;28;38987;-78
2022/01/28 03:37:28;;;;;;;19.20;3.63;;;7.20;99.90;;;;;;5054056;28;47511;-77
2022/01/28 03:39:54;;;;;;;18.87;2.60;;;7.20;99.90;;;;;;5074842;28;38012;-78
2022/01/28 03:42:20;;;;;;;24.77;3.67;;;7.10;99.90;;;;;;5072775;28;39478;-78
2022/01/28 03:44:46;;;;;;;13.90;2.20;;;7.10;99.90;;;;;;5053137;28;39778;-77
2022/01/28 03:47:12;;;;;;;17.63;2.53;;;7.00;99.90;;;;;;5054617;28;39504;-77
2022/01/28 03:49:38;;;;;;;15.60;2.10;;;7.00;99.90;;;;;;5058071;28;37171;-77
2022/01/28 03:52:05;;;;;;;11.67;2.30;;;7.00;99.90;;;;;;5060500;28;39476;-77
2022/01/28 03:54:31;;;;;;;12.83;2.50;;;7.00;99.90;;;;;;5062358;28;38010;-77
2022/01/28 03:56:57;;;;;;;18.17;2.50;;;7.00;99.90;;;;;;5059693;28;39980;-77
2022/01/28 03:59:23;;;;;;;16.77;1.90;;;6.90;99.90;;;;;;5080807;27;37238;-78
2022/01/28 04:01:51;;;;;;;15.33;2.37;;;6.80;99.90;;;;;;5059857;28;39455;-77
2022/01/28 04:12:20;;;;;;;19.60;2.00;;;6.90;99.90;;;;;;5076324;27;40419;-78
2022/01/28 04:17:31;;;;;;;15.90;2.13;;;6.70;99.90;;;;;;5069474;28;49680;-78
2022/01/28 04:19:57;;;;;;;24.97;3.23;;;6.70;99.90;;;;;;5080369;28;38078;-78
2022/01/28 04:22:25;;;;;;;14.77;2.10;;;6.70;99.90;;;;;;5061928;28;39923;-77
2022/01/28 04:24:51;;;;;;;9.60;1.80;;;6.70;99.90;;;;;;5068065;28;40251;-78
2022/01/28 04:27:18;;;;;;;13.20;2.27;;;6.70;99.90;;;;;;5061093;28;38285;-77
2022/01/28 04:29:44;;;;;;;16.10;2.23;;;6.70;99.90;;;;;;5081824;28;36291;-77
2022/01/28 04:32:11;;;;;;;16.63;3.00;;;6.90;99.90;;;;;;5078407;27;38780;-77
2022/01/28 04:34:37;;;;;;;17.70;2.20;;;6.90;99.90;;;;;;5063445;28;38880;-77
2022/01/28 04:37:31;;;;;;;17.43;2.63;;;7.00;99.90;;;;;;5059585;28;38719;-77
2022/01/28 04:40:07;;;;;;;15.73;2.67;;;7.00;99.90;;;;;;5061793;28;37112;-77
2022/01/28 04:45:23;;;;;;;18.33;2.70;;;7.00;99.90;;;;;;5077149;28;38826;-78
2022/01/28 04:48:43;;;;;;;27.73;3.00;;;7.00;99.90;;;;;;5076809;28;36415;-77
2022/01/28 04:50:50;;;;;;;34.07;5.00;;;6.90;99.90;;;;;;5063147;27;48935;-77
2022/01/28 04:56:10;;;;;;;28.70;4.90;;;7.00;99.90;;;;;;5078073;27;38579;-78
2022/01/28 04:58:57;;;;;;;31.63;4.10;;;6.90;99.90;;;;;;5075802;28;48706;-77
2022/01/28 05:04:50;;;;;;;35.37;5.33;;;7.00;99.90;;;;;;5081734;28;38827;-78
2022/01/28 05:12:34;;;;;;;23.33;3.73;;;6.90;99.90;;;;;;5081207;27;38742;-77
2022/01/28 05:27:57;;;;;;;29.63;4.27;;;6.90;99.90;;;;;;5075497;27;39552;-77
2022/01/28 05:30:24;;;;;;;22.30;4.57;;;6.90;99.90;;;;;;5074124;27;37945;-77
2022/01/28 05:32:50;;;;;;;27.43;4.30;;;6.80;99.90;;;;;;5058418;27;36604;-78
2022/01/28 05:35:16;;;;;;;33.03;4.57;;;6.70;99.90;;;;;;5075089;27;38459;-77
2022/01/28 05:37:42;;;;;;;26.87;4.37;;;6.70;99.90;;;;;;5076899;28;38332;-77
2022/01/28 05:40:08;;;;;;;28.10;4.93;;;6.70;99.90;;;;;;5055647;27;36856;-78
2022/01/28 05:42:34;;;;;;;34.43;4.40;;;6.70;99.90;;;;;;5057430;28;36485;-78
2022/01/28 05:45:00;;;;;;;27.10;4.67;;;6.60;99.90;;;;;;5070424;28;38972;-78
2022/01/28 05:47:27;;;;;;;33.43;5.37;;;6.50;99.90;;;;;;5073359;27;49144;-78
2022/01/28 05:49:53;;;;;;;41.13;5.20;;;6.50;99.90;;;;;;5072986;28;37096;-78
2022/01/28 05:52:20;;;;;;;33.33;4.40;;;6.50;99.90;;;;;;5073427;27;40252;-78
2022/01/28 05:54:46;;;;;;;37.20;4.30;;;6.40;99.90;;;;;;5073343;28;39198;-78
2022/01/28 05:57:12;;;;;;;25.80;4.03;;;6.30;99.90;;;;;;5075637;27;39232;-77
2022/01/28 05:59:38;;;;;;;31.77;5.30;;;6.20;99.90;;;;;;5074646;28;39012;-77
2022/01/28 06:02:04;;;;;;;28.57;4.60;;;6.20;99.90;;;;;;5051848;27;35033;-77
2022/01/28 06:04:30;;;;;;;27.20;4.13;;;6.20;99.90;;;;;;5057659;28;37703;-77
2022/01/28 06:06:56;;;;;;;27.63;3.63;;;6.20;99.90;;;;;;5070932;27;38537;-77
2022/01/28 06:09:22;;;;;;;33.57;3.77;;;6.20;99.90;;;;;;5056572;28;37814;-77
2022/01/28 06:11:48;;;;;;;21.77;4.43;;;6.10;99.90;;;;;;5075591;27;38119;-77
2022/01/28 06:14:14;;;;;;;21.10;2.93;;;6.20;99.90;;;;;;5070811;28;38700;-77
2022/01/28 06:16:41;;;;;;;23.83;4.00;;;6.10;99.90;;;;;;5050316;28;36620;-78
2022/01/28 06:19:07;;;;;;;25.00;4.70;;;6.10;99.90;;;;;;5056421;27;37121;-78
2022/01/28 06:21:33;;;;;;;20.50;4.17;;;6.10;99.90;;;;;;5077544;27;37653;-77
2022/01/28 06:23:59;;;;;;;19.30;3.53;;;6.00;99.90;;;;;;5058469;28;37572;-77
2022/01/28 06:26:25;;;;;;;24.97;3.30;;;6.00;99.90;;;;;;5054391;27;38238;-77
2022/01/28 06:28:53;;;;;;;25.90;3.93;;;5.90;99.90;;;;;;5053898;28;38117;-78
2022/01/28 06:31:19;;;;;;;21.93;5.00;;;5.90;99.90;;;;;;5051192;28;36113;-78
2022/01/28 06:33:45;;;;;;;24.17;3.97;;;5.80;99.90;;;;;;5074789;27;39366;-77
2022/01/28 06:36:12;;;;;;;21.77;3.60;;;5.70;99.90;;;;;;5055198;27;37314;-77
2022/01/28 06:38:38;;;;;;;23.87;3.60;;;5.60;99.90;;;;;;5073944;28;37000;-77
2022/01/28 06:41:04;;;;;;;23.00;3.50;;;5.60;99.90;;;;;;5058255;27;36666;-77
2022/01/28 06:43:30;;;;;;;23.63;3.93;;;5.70;99.90;;;;;;5075946;28;37824;-77
2022/01/28 06:45:56;;;;;;;24.97;3.60;;;5.60;99.90;;;;;;5074291;27;38249;-78
2022/01/28 06:48:22;;;;;;;20.47;3.67;;;5.60;99.90;;;;;;5076427;28;37938;-77
2022/01/28 06:50:48;;;;;;;29.63;4.37;;;5.60;99.90;;;;;;5076221;28;37733;-77
2022/01/28 06:53:15;;;;;;;21.93;3.67;;;5.60;99.90;;;;;;5081646;27;38758;-77
2022/01/28 06:55:42;;;;;;;19.47;2.90;;;5.60;99.90;;;;;;5080573;27;39226;-77
2022/01/28 06:58:09;;;;;;;25.90;3.73;;;5.50;99.90;;;;;;5053803;28;37482;-78
2022/01/28 07:00:40;;;;;;;16.63;3.33;;;5.50;99.90;;;;;;5069547;28;36848;-77
2022/01/28 07:03:14;;;;;;;17.67;3.10;;;5.40;99.90;;;;;;5074149;27;39003;-77
2022/01/28 07:05:41;;;;;;;24.90;3.67;;;5.30;99.90;;;;;;5073549;27;38390;-78
2022/01/28 07:08:08;;;;;;;17.83;3.13;;;5.30;99.90;;;;;;5070493;28;38324;-77
2022/01/28 07:10:34;;;;;;;18.67;2.97;;;5.30;99.90;;;;;;5071074;28;39601;-77
2022/01/28 07:13:01;;;;;;;29.57;4.27;;;5.30;99.90;;;;;;5057132;28;37991;-77
2022/01/28 07:15:28;;;;;;;28.03;3.63;;;5.30;99.90;;;;;;5069845;27;47425;-77
2022/01/28 07:17:57;;;;;;;20.70;3.10;;;5.20;99.90;;;;;;5054779;28;36888;-77
2022/01/28 07:20:24;;;;;;;16.93;3.20;;;5.40;99.90;;;;;;5072718;27;37524;-77
2022/01/28 07:22:50;;;;;;;21.43;3.27;;;5.30;99.90;;;;;;5082873;27;39461;-77
2022/01/28 07:25:16;;;;;;;21.43;3.30;;;5.20;99.90;;;;;;5065051;27;37121;-77
2022/01/28 07:27:42;;;;;;;21.87;3.33;;;5.10;99.90;;;;;;5063662;28;38000;-77
2022/01/28 07:30:09;;;;;;;19.97;2.80;;;5.10;99.90;;;;;;5065002;27;37105;-76
2022/01/28 07:32:35;;;;;;;27.73;3.43;;;5.10;99.90;;;;;;5077962;28;38803;-77
2022/01/28 07:35:02;;;;;;;21.70;3.10;;;5.20;99.90;;;;;;5075726;28;39392;-77
2022/01/28 07:37:28;;;;;;;19.43;2.67;;;5.30;99.90;;;;;;5080378;28;39045;-77
2022/01/28 07:39:55;;;;;;;23.40;4.07;;;5.20;99.90;;;;;;5076349;28;36919;-77
2022/01/28 07:42:22;;;;;;;26.23;3.17;;;5.20;99.90;;;;;;5059380;28;39282;-77
2022/01/28 07:44:48;;;;;;;19.10;3.80;;;5.30;99.90;;;;;;5079847;28;39428;-77
2022/01/28 07:47:14;;;;;;;28.03;4.80;;;5.30;99.90;;;;;;5078438;27;38530;-77
2022/01/28 07:49:40;;;;;;;32.40;3.13;;;5.30;99.90;;;;;;5064077;28;37671;-77
2022/01/28 07:52:06;;;;;;;17.30;2.60;;;5.40;99.90;;;;;;5080171;27;39555;-77
2022/01/28 07:54:32;;;;;;;21.40;3.30;;;5.40;99.90;;;;;;5060477;28;37194;-77
2022/01/28 07:57:00;;;;;;;18.47;3.40;;;5.40;99.90;;;;;;5060842;28;40014;-77
2022/01/28 07:59:27;;;;;;;24.80;2.50;;;5.40;99.90;;;;;;5058318;28;46638;-79
2022/01/28 08:01:53;;;;;;;17.40;3.00;;;5.40;99.90;;;;;;5077432;28;39982;-78
2022/01/28 08:04:19;;;;;;;20.63;2.90;;;5.40;99.90;;;;;;5060731;28;38513;-78
2022/01/28 08:06:45;;;;;;;18.33;3.73;;;5.50;99.90;;;;;;5069024;27;38560;-78
2022/01/28 08:09:11;;;;;;;18.80;3.67;;;5.60;99.90;;;;;;5081369;28;37104;-77
2022/01/28 08:11:37;;;;;;;14.97;2.30;;;5.60;99.90;;;;;;5078900;27;38913;-78
2022/01/28 08:14:03;;;;;;;18.60;2.20;;;5.80;99.90;;;;;;5060707;28;37885;-78
2022/01/28 08:16:30;;;;;;;17.93;2.97;;;5.90;99.90;;;;;;5062459;28;38539;-78
2022/01/28 08:18:56;;;;;;;25.10;5.17;;;5.90;99.90;;;;;;5079583;28;36710;-78
2022/01/28 08:21:22;;;;;;;25.17;3.17;;;5.80;99.90;;;;;;5076918;28;39283;-77
2022/01/28 08:23:48;;;;;;;17.87;2.50;;;5.80;99.90;;;;;;5080605;28;38220;-78
2022/01/28 08:26:14;;;;;;;18.23;2.97;;;5.90;99.90;;;;;;5061939;28;39142;-78
2022/01/28 08:28:43;;;;;;;11.03;2.23;;;5.80;99.90;;;;;;5082081;28;37942;-78
2022/01/28 08:31:09;;;;;;;16.53;2.00;;;5.80;99.90;;;;;;5082988;27;39587;-77
2022/01/28 08:33:35;;;;;;;21.00;2.53;;;5.90;99.90;;;;;;5064651;28;39943;-78
2022/01/28 08:36:02;;;;;;;12.93;2.20;;;5.90;99.90;;;;;;5061913;27;39152;-76
2022/01/28 08:38:38;;;;;;;18.17;2.50;;;6.00;99.90;;;;;;5069403;28;38246;-78
2022/01/28 08:41:05;;;;;;;17.83;2.73;;;6.00;99.90;;;;;;5067369;27;39209;-77
2022/01/28 08:43:32;;;;;;;14.57;1.93;;;6.00;99.90;;;;;;5069048;28;38789;-78
2022/01/28 08:45:58;;;;;;;14.87;2.33;;;5.90;99.90;;;;;;5065344;28;37608;-78
2022/01/28 08:48:25;;;;;;;22.63;2.70;;;6.10;99.90;;;;;;5064484;28;38653;-78
2022/01/28 08:50:51;;;;;;;22.97;2.50;;;6.10;99.90;;;;;;5066307;28;39134;-78
2022/01/28 08:53:17;;;;;;;18.23;3.83;;;6.10;99.90;;;;;;5064024;28;37942;-78
2022/01/28 08:55:43;;;;;;;30.53;4.87;;;6.10;99.90;;;;;;5085242;27;38266;-78
2022/01/28 08:58:11;;;;;;;22.77;3.73;;;6.20;99.90;;;;;;5082355;28;37270;-78
2022/01/28 09:00:38;;;;;;;17.23;4.23;;;6.10;99.90;;;;;;5086814;28;39574;-78
2022/01/28 09:03:04;;;;;;;21.57;4.17;;;6.00;99.90;;;;;;5082086;27;38607;-77
2022/01/28 09:05:30;;;;;;;15.90;4.53;;;5.90;99.90;;;;;;5086635;28;38574;-77
2022/01/28 09:07:57;;;;;;;16.60;3.47;;;5.90;99.90;;;;;;5088876;27;37637;-77
2022/01/28 09:10:29;;;;;;;16.77;3.60;;;5.90;99.90;;;;;;5088338;27;38714;-76
2022/01/28 09:15:35;;;;;;;21.10;3.07;;;6.00;99.90;;;;;;5079029;28;49086;-76
2022/01/28 09:18:03;;;;;;;17.67;3.07;;;6.00;99.90;;;;;;5082791;28;37120;-75
2022/01/28 09:20:31;;;;;;;25.10;3.73;;;6.10;99.90;;;;;;5080488;28;39544;-75
2022/01/28 09:22:58;;;;;;;16.80;3.53;;;6.10;99.90;;;;;;5067516;28;39739;-76
2022/01/28 09:25:25;;;;;;;24.10;3.70;;;6.20;99.90;;;;;;5064251;28;38451;-76
2022/01/28 09:27:51;;;;;;;22.53;3.80;;;6.20;99.90;;;;;;5078591;27;36901;-75
2022/01/28 09:30:18;;;;;;;15.07;3.47;;;6.20;99.90;;;;;;5064444;28;39499;-75
2022/01/28 09:32:45;;;;;;;20.90;4.20;;;6.20;99.90;;;;;;5063919;28;39528;-76
2022/01/28 09:35:11;;;;;;;33.27;4.47;;;6.30;99.90;;;;;;5085141;28;38788;-76
2022/01/28 09:37:37;;;;;;;22.30;4.17;;;6.40;99.90;;;;;;5064649;28;37628;-76
2022/01/28 09:40:04;;;;;;;23.00;4.50;;;6.50;99.90;;;;;;5063906;28;39858;-76
2022/01/28 09:42:34;;;;;;;28.43;5.10;;;6.60;99.90;;;;;;5083258;27;48138;-76
2022/01/28 09:45:03;;;;;;;25.60;4.83;;;6.70;99.90;;;;;;5083944;28;38776;-76
2022/01/28 09:47:30;;;;;;;27.57;4.37;;;6.70;99.90;;;;;;5082200;28;48243;-76
2022/01/28 09:49:58;;;;;;;24.80;4.73;;;6.80;99.90;;;;;;5065380;28;39189;-76
2022/01/28 09:52:24;;;;;;;31.00;5.13;;;6.80;99.90;;;;;;5081300;28;39645;-77
2022/01/28 09:54:50;;;;;;;30.47;6.97;;;6.80;99.90;;;;;;5064803;28;38862;-77
2022/01/28 09:57:18;;;;;;;24.60;5.53;;;6.90;99.90;;;;;;5082682;27;37750;-77
2022/01/28 09:59:45;;;;;;;23.87;5.37;;;6.90;99.90;;;;;;5065349;28;38562;-77
2022/01/28 10:02:12;;;;;;;24.47;5.37;;;7.00;99.90;;;;;;5076771;28;39529;-76
2022/01/28 10:04:39;;;;;;;35.03;6.50;;;7.00;99.90;;;;;;5083586;28;37804;-77
2022/01/28 10:07:16;;;;;;;27.83;5.40;;;7.00;99.90;;;;;;5079838;27;37869;-77
2022/01/28 10:09:56;;;;;;;30.87;6.63;;;7.10;99.90;;;;;;5061185;28;37809;-77
2022/01/28 10:12:31;;;;;;;27.60;5.87;;;7.10;99.90;;;;;;5064199;28;38800;-77
2022/01/28 10:15:03;;;;;;;25.43;5.60;;;7.20;99.90;;;;;;5079463;27;39301;-77
2022/01/28 10:17:52;;;;;;;28.02;6.20;;;7.20;99.90;;;;;;5061656;28;47371;-77
2022/01/28 10:20:20;;;;;;;32.13;6.00;;;7.30;99.90;;;;;;5054142;27;39320;-76
2022/01/28 10:22:55;;;;;;;23.47;6.10;;;7.30;99.90;;;;;;5062189;28;39258;-77
2022/01/28 10:25:27;;;;;;;32.73;7.07;;;7.40;99.90;;;;;;5061658;27;37874;-76
2022/01/28 10:28:12;;;;;;;33.47;7.10;;;7.40;99.90;;;;;;5087125;28;37409;-77
2022/01/28 10:30:40;;;;;;;21.97;5.17;;;7.50;99.90;;;;;;5079963;27;48562;-77
2022/01/28 10:33:16;;;;;;;27.50;5.10;;;7.50;99.90;;;;;;5083150;28;39623;-76
2022/01/28 10:35:48;;;;;;;22.37;5.43;;;7.60;99.90;;;;;;5083415;27;37934;-76
2022/01/28 10:38:27;;;;;;;29.13;5.33;;;7.70;99.90;;;;;;5067383;28;36372;-77
2022/01/28 10:41:11;;;;;;;24.93;5.20;;;7.70;99.90;;;;;;5064083;28;37771;-77
2022/01/28 10:43:45;;;;;;;28.37;5.83;;;7.80;99.90;;;;;;5065712;28;47416;-77
2022/01/28 10:46:11;;;;;;;19.17;4.30;;;8.00;99.90;;;;;;5064388;28;36852;-77
2022/01/28 10:48:56;;;;;;;24.27;5.70;;;8.10;99.90;;;;;;5086197;28;37343;-77
2022/01/28 10:51:39;;;;;;;21.10;4.53;;;8.10;99.90;;;;;;5062631;27;37634;-77
2022/01/28 10:54:13;;;;;;;27.20;6.50;;;8.10;99.90;;;;;;5064282;28;39754;-77
2022/01/28 10:56:54;;;;;;;27.97;7.13;;;8.20;99.90;;;;;;5084838;27;38968;-77
2022/01/28 10:59:22;;;;;;;25.63;6.23;;;8.40;99.90;;;;;;5084268;28;37029;-77
2022/01/28 11:01:49;;;;;;;24.40;6.30;;;8.50;99.90;;;;;;5066597;28;39756;-77
2022/01/28 11:04:17;;;;;;;28.73;6.13;;;8.50;99.90;;;;;;5068473;28;37736;-78
2022/01/28 11:06:45;;;;;;;27.63;6.43;;;8.60;99.90;;;;;;5084297;28;38956;-77
2022/01/28 11:09:13;;;;;;;24.37;6.57;;;8.70;99.90;;;;;;5082227;28;36260;-77
2022/01/28 11:11:40;;;;;;;29.83;5.83;;;8.80;99.90;;;;;;5062303;28;39829;-77
2022/01/28 11:14:06;;;;;;;16.50;4.73;;;8.80;99.90;;;;;;5087629;28;38344;-77
2022/01/28 11:16:33;;;;;;;24.13;5.17;;;8.80;99.90;;;;;;5069223;28;38754;-78
2022/01/28 11:19:00;;;;;;;22.20;4.90;;;8.80;99.90;;;;;;5083929;28;37285;-76
2022/01/28 11:21:47;;;;;;;22.20;4.33;;;8.80;99.90;;;;;;5086186;27;47841;-78
2022/01/28 11:24:19;;;;;;;26.60;5.00;;;8.60;99.90;;;;;;5048015;28;38155;-78
2022/01/28 11:27:10;;;;;;;22.05;4.22;;;8.50;99.90;;;;;;5082301;28;38656;-78
2022/01/28 11:29:36;;;;;;;22.80;4.17;;;8.60;99.90;;;;;;5075101;28;46972;-78
2022/01/28 11:32:15;;;;;;;23.27;4.20;;;8.60;99.90;;;;;;5080503;27;38884;-77
2022/01/28 11:34:59;;;;;;;23.40;4.93;;;8.70;99.90;;;;;;5077715;28;39414;-77
2022/01/28 11:37:28;;;;;;;18.57;4.60;;;8.80;99.90;;;;;;5064186;28;35614;-77
2022/01/28 11:40:12;;;;;;;14.07;4.00;;;8.90;99.90;;;;;;5087895;28;38140;-77
2022/01/28 11:42:38;;;;;;;24.23;5.30;;;9.00;99.90;;;;;;5084993;28;48998;-77
2022/01/28 11:45:06;;;;;;;17.00;3.47;;;9.00;99.90;;;;;;5067539;28;38068;-74
2022/01/28 11:47:40;;;;;;;16.73;4.13;;;9.10;99.90;;;;;;5083751;28;38155;-76
2022/01/28 11:50:12;;;;;;;15.80;4.33;;;9.00;99.90;;;;;;5084311;28;37204;-76
2022/01/28 11:52:42;;;;;;;20.40;3.80;;;8.90;99.90;;;;;;5084368;28;39779;-77
2022/01/28 11:55:17;;;;;;;22.43;3.67;;;8.80;99.90;;;;;;5084366;27;38629;-76
2022/01/28 11:58:04;;;;;;;13.43;4.00;;;8.80;99.90;;;;;;5068863;28;38274;-77
2022/01/28 12:00:38;;;;;;;18.70;3.83;;;9.00;99.90;;;;;;5066188;28;47662;-77
2022/01/28 12:03:24;;;;;;;22.70;4.53;;;9.10;99.90;;;;;;5087427;27;39151;-77
2022/01/28 12:05:56;;;;;;;16.43;3.80;;;9.30;99.90;;;;;;5067363;28;39030;-77
2022/01/28 12:08:27;;;;;;;16.63;4.35;;;9.30;99.90;;;;;;5086736;28;38524;-76
2022/01/28 12:10:54;;;;;;;19.17;4.03;;;9.40;99.90;;;;;;5089538;27;37480;-76
2022/01/28 12:13:46;;;;;;;19.73;4.37;;;9.40;99.90;;;;;;5094066;27;38760;-76
2022/01/28 12:16:25;;;;;;;19.00;4.63;;;9.40;99.90;;;;;;5074758;27;37250;-76
2022/01/28 12:18:54;;;;;;;13.03;3.70;;;9.50;99.90;;;;;;5092747;28;38435;-78
2022/01/28 12:21:28;;;;;;;16.23;3.53;;;9.40;99.90;;;;;;5092280;27;37251;-76
2022/01/28 12:24:21;;;;;;;14.00;4.10;;;9.30;99.90;;;;;;5084211;28;37552;-79
2022/01/28 12:27:08;;;;;;;17.00;3.37;;;9.20;99.90;;;;;;5091890;28;48785;-76
2022/01/28 12:29:37;;;;;;;14.97;3.77;;;9.20;99.90;;;;;;5093460;28;49110;-76
2022/01/28 12:32:04;;;;;;;14.83;3.63;;;9.40;99.90;;;;;;5077315;28;38110;-76
2022/01/28 12:34:30;;;;;;;17.60;4.40;;;9.50;99.90;;;;;;5078821;28;37845;-76
2022/01/28 12:36:58;;;;;;;17.37;3.50;;;9.60;99.90;;;;;;5086926;28;38359;-75
2022/01/28 12:39:33;;;;;;;12.33;3.10;;;9.60;99.90;;;;;;5079162;28;37316;-76
2022/01/28 12:42:10;;;;;;;13.00;3.20;;;9.70;99.90;;;;;;5090815;27;38604;-77
2022/01/28 12:44:38;;;;;;;16.03;3.50;;;9.70;99.90;;;;;;5076230;28;47510;-76
2022/01/28 12:47:09;;;;;;;13.40;3.27;;;9.70;99.90;;;;;;5093289;27;38323;-78
2022/01/28 12:49:36;;;;;;;9.50;3.47;;;9.60;99.90;;;;;;5072497;28;37606;-77
2022/01/28 12:52:09;;;;;;;16.57;4.00;;;9.60;99.90;;;;;;5073014;27;36933;-75
2022/01/28 12:54:37;;;;;;;13.20;3.33;;;9.80;99.90;;;;;;5078667;28;40655;-79
2022/01/28 12:57:04;;;;;;;12.67;3.83;;;9.80;99.90;;;;;;5090816;27;40172;-79
2022/01/28 12:59:30;;;;;;;15.00;4.23;;;9.80;99.90;;;;;;5097988;28;37568;-79
2022/01/28 13:01:57;;;;;;;12.47;4.00;;;9.70;99.90;;;;;;5092133;28;38620;-79
2022/01/28 13:04:47;;;;;;;15.70;4.00;;;9.70;99.90;;;;;;5094339;28;39048;-79
2022/01/28 13:09:55;;;;;;;15.90;4.70;;;9.60;99.90;;;;;;5093092;28;38856;-79
2022/01/28 13:12:26;;;;;;;12.03;3.13;;;9.60;99.90;;;;;;5070097;28;36587;-79
2022/01/28 13:14:53;;;;;;;12.07;2.93;;;9.70;99.90;;;;;;5075061;28;40000;-79
2022/01/28 13:17:21;;;;;;;13.93;3.30;;;9.70;99.90;;;;;;5091927;27;37832;-79
2022/01/28 13:19:58;;;;;;;12.40;3.10;;;9.60;99.90;;;;;;5071678;28;38016;-79
2022/01/28 13:22:26;;;;;;;8.80;2.53;;;9.70;99.90;;;;;;5070628;28;38180;-79
2022/01/28 13:24:53;;;;;;;9.57;3.03;;;9.70;99.90;;;;;;5081536;28;39795;-79
2022/01/28 13:27:21;;;;;;;11.63;2.70;;;9.70;99.90;;;;;;5072476;28;38608;-79
2022/01/28 13:29:53;;;;;;;13.60;2.93;;;9.70;99.90;;;;;;5091833;28;36928;-79
2022/01/28 13:32:29;;;;;;;6.90;2.30;;;9.60;99.90;;;;;;5091872;27;37379;-80
2022/01/28 13:34:57;;;;;;;13.97;2.53;;;9.50;99.90;;;;;;5072904;28;40969;-79
2022/01/28 13:37:43;;;;;;;10.90;2.60;;;9.50;99.90;;;;;;5088982;27;40597;-79
2022/01/28 13:40:17;;;;;;;11.13;2.97;;;9.60;99.90;;;;;;5093002;27;39243;-79
2022/01/28 13:43:06;;;;;;;8.93;2.93;;;9.70;99.90;;;;;;5092830;27;37795;-79
2022/01/28 13:45:35;;;;;;;12.77;3.70;;;9.80;99.90;;;;;;5074610;28;47080;-80
2022/01/28 13:48:05;;;;;;;9.85;3.78;;;10.00;99.90;;;;;;5069802;28;38206;-77
2022/01/28 13:50:36;;;;;;;10.17;3.47;;;10.10;99.90;;;;;;5074013;28;37269;-78
2022/01/28 13:56:02;;;;;;;13.07;3.33;;;10.30;99.90;;;;;;5091723;27;39948;-78
2022/01/28 13:58:40;;;;;;;12.93;3.40;;;10.20;99.90;;;;;;5092980;28;49462;-78
2022/01/28 14:01:09;;;;;;;9.67;3.17;;;10.20;99.90;;;;;;5084202;28;37889;-77
2022/01/28 14:04:00;;;;;;;10.50;3.00;;;10.10;99.90;;;;;;5069565;28;38720;-78
2022/01/28 14:06:26;;;;;;;12.63;3.27;;;10.00;99.90;;;;;;5076481;28;41400;-77
2022/01/28 14:09:04;;;;;;;8.90;2.93;;;10.10;99.90;;;;;;5092100;28;38354;-77
2022/01/28 14:11:37;;;;;;;11.33;3.20;;;10.10;99.90;;;;;;5070198;28;47054;-77
2022/01/28 14:14:08;;;;;;;13.60;3.50;;;10.00;99.90;;;;;;5074593;28;38294;-77
2022/01/28 14:16:35;;;;;;;12.90;3.60;;;10.00;99.90;;;;;;5072801;28;39860;-78
2022/01/28 14:19:01;;;;;;;12.13;3.23;;;9.90;99.90;;;;;;5092702;28;38542;-78
2022/01/28 14:21:27;;;;;;;13.10;4.07;;;10.00;99.90;;;;;;5090427;27;49345;-78
2022/01/28 14:23:54;;;;;;;10.87;3.87;;;9.90;99.90;;;;;;5073305;28;38555;-77